Time;durP1;ratioP1;P1;durP2;ratioP2;P2;SDS_P1;SDS_P2;PMS_P1;PMS_P2;Temp;Humidity;BMP_temperature;BMP_pressure;BME280_temperature;BME280_humidity;BME280_pressure;Samples;Min_cycle;Max_cycle;Signal;HPM_P1;HPM_P2
2021/11/16 00:02:10;;;;;;;8.05;3.98;;;;;;;3.84;54.89;102831.05;1771088;81;21494;-69
2021/11/16 00:04:38;;;;;;;7.10;4.35;;;;;;;3.84;54.92;102830.55;1771141;81;21466;-68
2021/11/16 00:07:06;;;;;;;7.58;4.58;;;;;;;3.87;54.97;102825.45;1771325;81;21141;-69
2021/11/16 00:09:33;;;;;;;6.80;4.33;;;;;;;3.85;55.06;102834.88;1771260;81;20991;-69
2021/11/16 00:12:00;;;;;;;6.30;4.17;;;;;;;3.83;55.02;102824.94;1770315;81;20987;-69
2021/11/16 00:14:30;;;;;;;6.95;5.00;;;;;;;3.83;55.07;102822.80;1770534;81;21026;-68
2021/11/16 00:16:56;;;;;;;5.85;3.83;;;;;;;3.84;55.05;102835.84;1759739;81;20958;-68
2021/11/16 00:19:23;;;;;;;6.37;4.30;;;;;;;3.94;54.93;102829.13;1740086;81;21112;-68
2021/11/16 00:21:50;;;;;;;6.37;3.87;;;;;;;3.98;54.88;102832.64;1739939;81;21078;-68
2021/11/16 00:24:32;;;;;;;5.80;4.10;;;;;;;3.99;54.85;102825.03;1765873;81;20983;-67
2021/11/16 00:26:46;;;;;;;5.83;4.00;;;;;;;4.00;54.78;102824.53;1765979;81;21411;-68
2021/11/16 00:29:13;;;;;;;5.97;3.90;;;;;;;3.97;54.81;102838.06;1770548;81;20935;-66
2021/11/16 00:31:40;;;;;;;7.62;4.22;;;;;;;3.96;54.82;102830.63;1770307;81;21167;-68
2021/11/16 00:34:07;;;;;;;6.30;4.08;;;;;;;3.94;54.69;102831.27;1770759;81;21454;-68
2021/11/16 00:36:35;;;;;;;5.92;4.22;;;;;;;3.95;54.69;102832.95;1770421;81;21497;-68
2021/11/16 00:39:02;;;;;;;5.33;3.90;;;;;;;3.96;54.66;102821.38;1770186;81;20999;-68
2021/11/16 00:41:30;;;;;;;6.45;4.40;;;;;;;3.99;54.69;102821.06;1770471;81;21062;-68
2021/11/16 00:43:58;;;;;;;6.62;4.55;;;;;;;4.05;54.59;102812.15;1770488;81;21968;-68
2021/11/16 00:46:25;;;;;;;6.92;4.47;;;;;;;4.07;54.53;102812.33;1770348;81;20928;-68
2021/11/16 00:48:52;;;;;;;7.85;5.08;;;;;;;4.10;54.45;102811.20;1770418;81;21039;-68
2021/11/16 00:51:19;;;;;;;6.80;4.58;;;;;;;4.11;54.42;102810.20;1770386;81;21613;-68
2021/11/16 00:53:46;;;;;;;7.67;5.22;;;;;;;4.12;54.37;102814.02;1770442;81;20931;-68
2021/11/16 00:56:12;;;;;;;7.33;4.95;;;;;;;4.15;54.30;102814.20;1770400;81;21435;-68
2021/11/16 00:58:39;;;;;;;8.73;5.58;;;;;;;4.15;54.25;102814.20;1770299;81;21489;-68
2021/11/16 01:01:06;;;;;;;7.33;5.42;;;;;;;4.09;54.28;102816.98;1770389;81;21030;-68
2021/11/16 01:03:33;;;;;;;8.63;5.87;;;;;;;4.09;54.17;102814.84;1770555;81;20999;-68
2021/11/16 01:06:00;;;;;;;7.78;5.22;;;;;;;4.06;54.20;102814.66;1770480;81;21725;-68
2021/11/16 01:08:27;;;;;;;7.78;5.10;;;;;;;4.06;54.24;102817.30;1770428;81;21927;-69
2021/11/16 01:10:55;;;;;;;6.28;5.03;;;;;;;4.10;54.27;102816.48;1770208;81;20948;-69
2021/11/16 01:13:25;;;;;;;6.78;5.30;;;;;;;4.14;54.20;102817.31;1770394;81;21628;-68
2021/11/16 01:15:52;;;;;;;10.18;5.33;;;;;;;4.18;54.00;102813.89;1770496;81;20943;-68
2021/11/16 01:18:21;;;;;;;7.92;5.90;;;;;;;4.19;53.67;102807.60;1770420;81;21098;-67
2021/11/16 01:20:48;;;;;;;8.65;5.42;;;;;;;4.21;53.47;102813.55;1770452;81;21126;-68
2021/11/16 01:23:15;;;;;;;8.58;5.67;;;;;;;4.23;53.36;102811.58;1770239;81;20944;-68
2021/11/16 01:25:45;;;;;;;8.23;5.62;;;;;;;4.25;53.28;102805.65;1770365;81;21438;-68
2021/11/16 01:28:17;;;;;;;16.75;6.62;;;;;;;4.28;53.25;102797.86;1769745;81;21026;-68
2021/11/16 01:30:47;;;;;;;13.70;7.97;;;;;;;4.29;52.96;102794.25;1766663;80;20955;-68
2021/11/16 01:33:18;;;;;;;16.15;7.58;;;;;;;4.27;52.40;102794.39;1770374;81;21128;-69
2021/11/16 01:35:44;;;;;;;10.60;6.78;;;;;;;4.24;52.18;102800.00;1770464;81;20928;-69
2021/11/16 01:38:12;;;;;;;11.38;6.70;;;;;;;4.23;52.25;102796.53;1769881;81;21011;-69
2021/11/16 01:40:41;;;;;;;11.93;7.08;;;;;;;4.23;52.20;102796.53;1770573;81;21003;-68
2021/11/16 01:43:10;;;;;;;9.95;6.12;;;;;;;4.24;52.04;102796.03;1770459;81;21043;-69
2021/11/16 01:45:38;;;;;;;8.70;6.45;;;;;;;4.25;51.95;102799.03;1770303;81;21015;-69
2021/11/16 01:48:07;;;;;;;12.28;7.15;;;;;;;4.27;51.96;102798.36;1770481;81;20967;-68
2021/11/16 01:50:35;;;;;;;11.43;6.42;;;;;;;4.31;52.01;102798.40;1770237;81;21097;-69
2021/11/16 01:53:02;;;;;;;13.40;7.20;;;;;;;4.32;51.87;102789.47;1770459;81;21076;-69
2021/11/16 01:55:29;;;;;;;11.93;7.05;;;;;;;4.32;51.82;102790.78;1770447;81;21611;-69
2021/11/16 01:57:57;;;;;;;14.10;7.20;;;;;;;4.33;51.86;102789.78;1770485;81;21903;-69
2021/11/16 02:00:28;;;;;;;11.93;7.35;;;;;;;4.33;51.82;102792.43;1770780;81;20955;-69
2021/11/16 02:02:55;;;;;;;14.18;7.20;;;;;;;4.35;51.87;102792.29;1770301;81;21486;-69
2021/11/16 02:05:40;;;;;;;11.33;7.33;;;;;;;4.35;51.74;102787.82;1770404;81;21012;-69
2021/11/16 02:08:09;;;;;;;9.43;6.50;;;;;;;4.38;51.83;102794.62;1770358;81;21026;-69
2021/11/16 02:10:36;;;;;;;9.63;7.28;;;;;;;4.39;51.76;102784.36;1770750;81;21759;-69
2021/11/16 02:13:03;;;;;;;15.32;7.87;;;;;;;4.39;51.71;102783.86;1770177;81;20999;-69
2021/11/16 02:15:30;;;;;;;12.80;7.85;;;;;;;4.41;51.66;102781.89;1770620;81;21509;-69
2021/11/16 02:17:58;;;;;;;16.23;8.80;;;;;;;4.41;51.51;102773.13;1770351;81;20986;-69
2021/11/16 02:20:31;;;;;;;11.08;8.55;;;;;;;4.39;51.27;102779.06;1769299;81;21050;-68
2021/11/16 02:22:57;;;;;;;11.88;7.47;;;;;;;4.38;51.32;102772.95;1770477;81;21112;-68
2021/11/16 02:25:25;;;;;;;12.75;7.37;;;;;;;4.39;51.34;102764.52;1769955;81;20932;-68
2021/11/16 02:27:52;;;;;;;12.25;7.50;;;;;;;4.39;51.40;102766.66;1755191;81;21521;-68
2021/11/16 02:30:23;;;;;;;11.57;7.72;;;;;;;4.41;51.27;102769.98;1757200;81;21058;-68
2021/11/16 02:32:50;;;;;;;17.62;10.00;;;;;;;4.41;51.25;102762.55;1731105;82;21007;-68
2021/11/16 02:35:18;;;;;;;16.90;10.58;;;;;;;4.37;50.90;102759.37;1731444;82;21779;-68
2021/11/16 02:37:46;;;;;;;14.73;8.85;;;;;;;4.33;50.71;102750.10;1731455;82;21011;-68
2021/11/16 02:40:14;;;;;;;13.88;8.98;;;;;;;4.29;50.63;102748.77;1731878;82;20995;-68
2021/11/16 02:42:41;;;;;;;12.00;8.38;;;;;;;4.27;50.51;102749.42;1731520;82;21015;-68
2021/11/16 02:45:10;;;;;;;14.98;9.60;;;;;;;4.23;50.65;102748.91;1731845;82;21471;-68
2021/11/16 02:47:37;;;;;;;12.93;9.08;;;;;;;4.23;50.45;102748.09;1731530;82;21067;-68
2021/11/16 02:50:04;;;;;;;12.35;8.33;;;;;;;4.19;50.54;102746.77;1731860;82;20999;-68
2021/11/16 02:52:32;;;;;;;8.93;7.05;;;;;;;4.20;50.63;102747.09;1731596;82;21129;-68
2021/11/16 02:55:00;;;;;;;7.20;6.22;;;;;;;4.18;50.52;102741.98;1731450;82;20995;-68
2021/11/16 02:57:27;;;;;;;7.53;6.55;;;;;;;4.17;50.61;102740.30;1731482;82;21047;-68
2021/11/16 02:59:55;;;;;;;9.33;7.53;;;;;;;4.14;50.49;102737.97;1751096;81;21373;-68
2021/11/16 03:02:22;;;;;;;9.40;8.13;;;;;;;4.12;50.58;102737.82;1761832;81;21008;-68
2021/11/16 03:04:50;;;;;;;9.03;7.45;;;;;;;4.09;50.62;102733.67;1781347;80;20959;-68
2021/11/16 03:07:33;;;;;;;8.38;6.85;;;;;;;4.11;50.83;102740.11;1751741;80;21433;-68
2021/11/16 03:10:01;;;;;;;8.90;6.92;;;;;;;4.13;50.90;102735.50;1781364;80;21481;-68
2021/11/16 03:12:28;;;;;;;8.95;6.78;;;;;;;4.16;50.97;102739.97;1781098;80;21109;-68
2021/11/16 03:14:57;;;;;;;7.95;6.47;;;;;;;4.19;51.00;102734.86;1781155;80;20942;-68
2021/11/16 03:17:26;;;;;;;8.98;6.55;;;;;;;4.22;50.99;102739.33;1781300;80;21135;-68
2021/11/16 03:19:53;;;;;;;10.13;7.08;;;;;;;4.23;50.96;102730.40;1771459;80;21013;-68
2021/11/16 03:22:24;;;;;;;11.18;8.05;;;;;;;4.25;50.98;102732.08;1770555;81;21003;-68
2021/11/16 03:24:49;;;;;;;13.45;9.20;;;;;;;4.22;51.03;102735.37;1770371;81;21146;-67
2021/11/16 03:27:18;;;;;;;11.10;8.93;;;;;;;4.14;51.19;102729.22;1770211;81;20966;-67
2021/11/16 03:29:47;;;;;;;9.23;7.78;;;;;;;4.12;51.20;102731.21;1770521;81;20959;-67
2021/11/16 03:32:18;;;;;;;10.43;7.12;;;;;;;4.20;51.00;102727.25;1769599;81;20983;-67
2021/11/16 03:34:47;;;;;;;8.18;6.92;;;;;;;4.24;50.97;102724.61;1770356;81;20987;-67
2021/11/16 03:37:15;;;;;;;8.43;6.65;;;;;;;4.23;50.87;102729.08;1761250;81;21183;-68
2021/11/16 03:39:43;;;;;;;7.17;6.28;;;;;;;4.20;50.76;102721.46;1751958;81;21031;-67
2021/11/16 03:42:12;;;;;;;8.25;6.80;;;;;;;4.20;50.81;102725.93;1770688;81;21062;-69
2021/11/16 03:44:39;;;;;;;8.78;6.67;;;;;;;4.09;50.90;102723.59;1769938;81;21010;-68
2021/11/16 03:47:07;;;;;;;7.62;6.37;;;;;;;4.03;51.02;102721.59;1770598;81;21007;-68
2021/11/16 03:49:33;;;;;;;8.13;6.70;;;;;;;4.00;50.94;102723.55;1770431;81;21123;-68
2021/11/16 03:52:01;;;;;;;9.33;6.58;;;;;;;3.97;50.79;102714.62;1769973;81;21010;-68
2021/11/16 03:54:28;;;;;;;7.67;6.42;;;;;;;3.94;50.61;102712.29;1770424;81;20955;-68
2021/11/16 03:57:00;;;;;;;8.38;6.65;;;;;;;3.88;50.76;102706.81;1770059;81;21461;-68
2021/11/16 03:59:24;;;;;;;10.60;6.78;;;;;;;3.87;50.94;102722.35;1769022;81;21533;-68
2021/11/16 04:01:51;;;;;;;8.60;7.70;;;;;;;3.87;51.16;102721.85;1770529;81;21760;-67
2021/11/16 04:04:19;;;;;;;8.70;7.12;;;;;;;3.89;51.30;102721.71;1756242;81;21064;-68
2021/11/16 04:06:48;;;;;;;8.68;6.97;;;;;;;3.90;51.33;102713.61;1744617;81;21082;-68
2021/11/16 04:09:14;;;;;;;8.60;6.67;;;;;;;3.93;51.31;102720.40;1749025;81;21475;-68
2021/11/16 04:11:42;;;;;;;8.65;6.62;;;;;;;3.95;51.34;102718.44;1770503;81;21072;-68
2021/11/16 04:14:10;;;;;;;8.88;7.20;;;;;;;3.96;51.25;102722.22;1769952;81;21122;-68
2021/11/16 04:16:37;;;;;;;10.90;8.48;;;;;;;3.92;51.19;102716.93;1770347;81;20986;-68
2021/11/16 04:19:04;;;;;;;10.50;8.18;;;;;;;3.93;51.25;102715.11;1770155;81;21117;-68
2021/11/16 04:21:31;;;;;;;10.25;8.00;;;;;;;3.94;51.22;102716.26;1770378;81;21035;-68
2021/11/16 04:23:57;;;;;;;10.60;8.13;;;;;;;3.95;51.34;102716.61;1770419;81;21990;-68
2021/11/16 04:26:28;;;;;;;8.63;7.45;;;;;;;3.99;51.40;102714.47;1770201;81;20935;-68
2021/11/16 04:28:55;;;;;;;10.70;8.25;;;;;;;4.00;51.34;102711.66;1770510;81;21470;-68
2021/11/16 04:31:21;;;;;;;9.10;7.70;;;;;;;4.02;51.38;102718.63;1770614;81;20982;-68
2021/11/16 04:33:48;;;;;;;8.95;7.17;;;;;;;4.00;51.32;102707.69;1770275;81;21058;-67
2021/11/16 04:36:17;;;;;;;10.98;8.93;;;;;;;4.02;51.32;102711.52;1770632;81;21034;-68
2021/11/16 04:38:45;;;;;;;11.83;8.88;;;;;;;4.02;51.28;102710.69;1770419;81;21123;-68
2021/11/16 04:41:12;;;;;;;10.58;8.25;;;;;;;4.03;51.35;102709.19;1770642;81;21500;-68
2021/11/16 04:43:39;;;;;;;9.78;7.25;;;;;;;4.02;51.31;102718.63;1770443;81;21513;-68
2021/11/16 04:46:08;;;;;;;7.37;6.10;;;;;;;3.99;51.18;102713.98;1770697;81;20956;-68
2021/11/16 05:02:41;;;;;;;8.43;6.40;;;;;;;3.80;51.01;102720.84;1755319;81;21047;-68
2021/11/16 05:04:23;;;;;;;8.38;6.40;;;;;;;3.80;51.19;102719.52;1712615;82;21224;-68
2021/11/16 05:06:52;;;;;;;8.73;6.62;;;;;;;3.82;51.39;102720.20;1757320;81;21482;-68
2021/11/16 05:09:19;;;;;;;10.45;7.80;;;;;;;3.83;51.51;102724.48;1731556;82;20985;-68
2021/11/16 05:11:46;;;;;;;11.55;8.40;;;;;;;3.85;51.52;102723.84;1731751;82;20954;-69
2021/11/16 05:14:15;;;;;;;12.45;10.03;;;;;;;3.86;51.53;102722.84;1731516;82;21030;-68
2021/11/16 05:16:42;;;;;;;12.58;9.40;;;;;;;3.87;51.59;102721.03;1731496;82;21048;-69
2021/11/16 05:19:08;;;;;;;10.95;8.15;;;;;;;3.88;51.63;102727.50;1731138;81;21631;-68
2021/11/16 05:21:35;;;;;;;9.48;7.55;;;;;;;3.86;51.39;102724.17;1704490;83;21094;-68
2021/11/16 05:24:02;;;;;;;8.45;7.37;;;;;;;3.84;51.33;102728.78;1747573;81;21031;-68
2021/11/16 05:26:29;;;;;;;7.50;6.55;;;;;;;3.86;51.46;102728.63;1767799;81;21683;-68
2021/11/16 05:28:57;;;;;;;9.00;6.55;;;;;;;3.87;51.55;102721.85;1767263;81;21802;-68
2021/11/16 05:31:24;;;;;;;8.18;6.45;;;;;;;3.91;51.57;102727.15;1767798;81;20991;-68
2021/11/16 05:33:54;;;;;;;7.80;6.20;;;;;;;3.92;51.41;102726.69;1767094;81;21010;-68
2021/11/16 05:36:20;;;;;;;7.90;6.12;;;;;;;3.92;51.39;102730.64;1767752;81;21511;-68
2021/11/16 05:38:47;;;;;;;8.13;6.20;;;;;;;3.89;51.37;102726.50;1767179;81;20947;-68
2021/11/16 05:41:18;;;;;;;10.72;6.50;;;;;;;3.89;51.43;102729.14;1767735;81;21810;-68
2021/11/16 05:43:46;;;;;;;10.13;6.85;;;;;;;3.91;51.44;102732.94;1767674;81;20960;-69
2021/11/16 05:46:18;;;;;;;8.25;6.30;;;;;;;3.87;51.15;102739.03;1767710;81;21068;-69
2021/11/16 05:48:43;;;;;;;7.37;5.78;;;;;;;3.85;51.21;102737.53;1766862;81;21598;-69
2021/11/16 05:51:10;;;;;;;7.97;6.58;;;;;;;3.87;51.28;102735.07;1766754;81;21047;-69
2021/11/16 05:53:40;;;;;;;9.05;6.62;;;;;;;3.88;51.18;102738.07;1767422;81;21300;-69
2021/11/16 05:56:06;;;;;;;8.93;6.22;;;;;;;3.88;51.16;102734.57;1767562;81;21344;-69
2021/11/16 05:58:33;;;;;;;8.03;6.08;;;;;;;3.85;51.25;102740.17;1767052;81;20939;-69
2021/11/16 06:01:01;;;;;;;8.83;6.55;;;;;;;3.84;51.23;102748.60;1767413;81;21031;-69
2021/11/16 06:03:28;;;;;;;7.65;6.33;;;;;;;3.80;51.12;102752.55;1766978;81;21051;-68
2021/11/16 06:05:55;;;;;;;7.40;6.20;;;;;;;3.81;51.40;102750.23;1764040;81;21135;-69
2021/11/16 06:08:27;;;;;;;7.12;5.65;;;;;;;3.86;51.48;102742.67;1767219;81;21414;-69
2021/11/16 06:10:56;;;;;;;8.73;5.55;;;;;;;3.92;51.40;102748.66;1767731;81;21071;-69
2021/11/16 06:13:23;;;;;;;8.13;5.97;;;;;;;3.97;51.33;102741.55;1767708;81;20995;-69
2021/11/16 06:15:50;;;;;;;7.28;5.65;;;;;;;4.02;51.22;102741.09;1767454;81;21530;-69
2021/11/16 06:18:23;;;;;;;7.17;5.20;;;;;;;4.04;51.07;102735.13;1767543;81;21004;-69
2021/11/16 06:20:51;;;;;;;7.72;5.75;;;;;;;4.08;51.13;102737.78;1766911;81;21066;-68
2021/11/16 06:23:18;;;;;;;8.45;6.10;;;;;;;4.12;51.05;102738.65;1738119;81;20955;-68
2021/11/16 06:25:46;;;;;;;6.58;5.62;;;;;;;4.09;50.82;102735.50;1767774;81;20963;-68
2021/11/16 06:28:13;;;;;;;7.55;5.72;;;;;;;4.06;50.81;102734.49;1766585;81;21061;-67
2021/11/16 06:30:39;;;;;;;8.78;5.50;;;;;;;4.04;50.64;102736.45;1767056;81;21138;-68
2021/11/16 06:33:07;;;;;;;8.75;6.10;;;;;;;4.01;50.76;102734.95;1767519;81;21075;-69
2021/11/16 06:35:34;;;;;;;7.75;5.67;;;;;;;4.04;50.82;102728.52;1767394;81;21020;-69
2021/11/16 06:38:01;;;;;;;8.28;6.00;;;;;;;4.06;50.81;102737.96;1767692;81;21011;-69
2021/11/16 06:40:28;;;;;;;8.03;6.10;;;;;;;4.10;50.77;102734.50;1767553;81;20963;-69
2021/11/16 06:42:55;;;;;;;8.70;5.37;;;;;;;4.12;50.70;102732.53;1767629;81;21108;-69
2021/11/16 06:45:22;;;;;;;7.60;5.70;;;;;;;4.16;50.74;102730.72;1767479;81;20979;-69
2021/11/16 06:47:48;;;;;;;7.90;5.72;;;;;;;4.25;50.62;102732.08;1767742;81;20960;-69
2021/11/16 06:50:16;;;;;;;7.65;5.80;;;;;;;4.28;50.47;102728.61;1767645;81;21114;-68
2021/11/16 06:52:43;;;;;;;7.35;5.55;;;;;;;4.34;50.63;102733.23;1767797;81;21026;-69
2021/11/16 06:55:10;;;;;;;8.08;5.53;;;;;;;4.44;50.69;102727.80;1767446;81;21064;-68
2021/11/16 06:57:38;;;;;;;8.65;5.55;;;;;;;4.56;50.65;102730.47;1767427;81;21161;-69
2021/11/16 07:00:07;;;;;;;8.28;5.60;;;;;;;4.66;50.55;102725.84;1767516;81;21094;-69
2021/11/16 07:02:35;;;;;;;7.05;4.10;;;;;;;4.78;50.52;102725.03;1767905;81;21003;-68
2021/11/16 07:05:11;;;;;;;8.18;5.45;;;;;;;4.87;50.36;102731.99;1767268;81;21034;-68
2021/11/16 07:07:44;;;;;;;7.58;5.62;;;;;;;4.96;50.27;102724.03;1766639;81;21151;-68
2021/11/16 07:10:15;;;;;;;8.40;6.10;;;;;;;4.99;50.09;102725.03;1767591;81;21766;-68
2021/11/16 07:12:40;;;;;;;8.35;6.45;;;;;;;5.03;50.33;102727.16;1767630;80;20995;-68
2021/11/16 07:15:08;;;;;;;7.92;5.62;;;;;;;5.10;50.40;102724.67;1767462;81;21003;-68
2021/11/16 07:17:35;;;;;;;7.85;5.58;;;;;;;5.15;50.26;102725.02;1767606;81;21058;-68
2021/11/16 07:20:02;;;;;;;7.62;5.40;;;;;;;5.21;50.30;102732.80;1767544;81;21956;-68
2021/11/16 07:22:30;;;;;;;7.87;5.70;;;;;;;5.25;50.34;102728.81;1767342;81;21018;-67
2021/11/16 07:25:09;;;;;;;8.13;5.80;;;;;;;5.28;50.49;102721.34;1767394;81;21592;-68
2021/11/16 07:27:42;;;;;;;8.93;6.12;;;;;;;5.35;50.64;102724.97;1767746;81;21023;-68
2021/11/16 07:30:14;;;;;;;11.63;6.28;;;;;;;5.40;50.62;102726.62;1767588;81;21039;-68
2021/11/16 07:32:53;;;;;;;8.98;6.55;;;;;;;5.44;50.48;102727.62;1767808;81;21166;-68
2021/11/16 07:35:25;;;;;;;10.43;6.28;;;;;;;5.43;50.42;102722.82;1767604;81;21573;-68
2021/11/16 07:37:56;;;;;;;9.88;6.92;;;;;;;5.46;50.36;102720.30;1767883;81;21094;-68
2021/11/16 07:40:23;;;;;;;8.63;6.92;;;;;;;5.44;50.33;102713.05;1767880;81;20995;-68
2021/11/16 07:43:02;;;;;;;9.70;5.95;;;;;;;5.43;50.39;102711.37;1767514;81;21086;-68
2021/11/16 07:45:40;;;;;;;8.10;5.95;;;;;;;5.40;50.38;102710.73;1737271;81;21153;-68
2021/11/16 07:48:13;;;;;;;10.55;6.90;;;;;;;5.41;50.50;102712.88;1760928;81;20975;-69
2021/11/16 07:50:47;;;;;;;9.20;6.65;;;;;;;5.39;50.39;102710.88;1767644;81;21011;-69
2021/11/16 07:53:23;;;;;;;10.15;7.20;;;;;;;5.37;50.49;102713.72;1767638;81;21069;-66
2021/11/16 07:56:12;;;;;;;9.55;7.20;;;;;;;5.35;50.14;102702.45;1767409;81;21573;-68
2021/11/16 07:59:02;;;;;;;10.65;7.15;;;;;;;5.29;50.04;102706.27;1767472;81;21120;-68
2021/11/16 08:07:16;;;;;;;10.05;7.70;;;;;;;5.32;49.63;102698.81;1766396;81;21050;-69
2021/11/16 08:09:30;;;;;;;13.48;7.90;;;;;;;5.27;49.31;102702.98;1757157;81;20999;-68
2021/11/16 08:14:49;;;;;;;9.13;6.78;;;;;;;5.37;49.79;102692.52;1767129;81;21025;-67
2021/11/16 08:17:16;;;;;;;9.00;6.90;;;;;;;5.56;49.44;102689.98;1766201;81;21082;-69
2021/11/16 08:19:43;;;;;;;11.00;7.80;;;;;;;5.72;48.73;102682.44;1767375;81;21059;-70
2021/11/16 08:22:14;;;;;;;9.33;7.12;;;;;;;5.80;47.88;102685.07;1766739;81;21593;-69
2021/11/16 08:24:45;;;;;;;8.98;6.90;;;;;;;5.79;47.45;102686.08;1736766;81;21142;-69
2021/11/16 08:27:15;;;;;;;9.50;6.95;;;;;;;5.75;47.63;102683.42;1741948;81;21086;-69
2021/11/16 08:29:46;;;;;;;9.15;6.70;;;;;;;5.75;47.47;102679.95;1764657;81;21015;-69
2021/11/16 08:32:19;;;;;;;9.60;6.87;;;;;;;5.69;47.09;102681.45;1767042;81;21522;-70
2021/11/16 08:34:52;;;;;;;11.08;7.20;;;;;;;5.60;47.36;102675.88;1738425;81;21391;-69
2021/11/16 08:37:22;;;;;;;9.85;7.28;;;;;;;5.61;47.27;102681.50;1767149;81;21070;-69
2021/11/16 08:39:56;;;;;;;9.43;7.05;;;;;;;5.52;47.46;102675.89;1767259;81;21415;-69
2021/11/16 08:42:29;;;;;;;10.38;7.42;;;;;;;5.38;47.13;102666.84;1766972;81;21048;-70
2021/11/16 08:45:12;;;;;;;9.78;7.53;;;;;;;5.25;47.52;102665.22;1767391;81;21046;-70
2021/11/16 08:47:48;;;;;;;9.43;7.90;;;;;;;5.26;47.91;102665.54;1767419;81;21486;-71
2021/11/16 08:50:29;;;;;;;12.25;7.60;;;;;;;5.26;47.66;102657.09;1767443;81;21122;-70
2021/11/16 08:52:57;;;;;;;10.25;7.60;;;;;;;5.23;47.73;102658.78;1741134;81;21051;-69
2021/11/16 08:55:28;;;;;;;9.93;7.45;;;;;;;5.16;47.74;102652.48;1767444;81;21120;-69
2021/11/16 08:57:55;;;;;;;8.68;6.47;;;;;;;5.20;48.07;102652.50;1767259;81;21596;-69
2021/11/16 09:00:35;;;;;;;9.58;6.47;;;;;;;5.32;48.04;102655.59;1737313;81;21043;-70
2021/11/16 09:03:11;;;;;;;8.20;6.58;;;;;;;5.45;47.89;102657.70;1767618;81;21523;-69
2021/11/16 09:05:46;;;;;;;10.10;6.80;;;;;;;5.57;47.88;102653.69;1766846;81;21163;-70
2021/11/16 09:08:25;;;;;;;9.50;6.67;;;;;;;5.69;47.98;102653.61;1767619;81;20999;-69
2021/11/16 09:10:55;;;;;;;9.98;7.55;;;;;;;5.85;47.39;102649.55;1767584;81;21003;-70
2021/11/16 09:13:25;;;;;;;8.70;6.47;;;;;;;5.80;47.00;102643.14;1767387;81;21097;-70
2021/11/16 09:15:55;;;;;;;9.53;7.28;;;;;;;5.82;47.13;102638.47;1768331;81;21200;-71
2021/11/16 09:18:28;;;;;;;9.80;7.37;;;;;;;5.79;46.67;102637.48;1767397;81;21098;-70
2021/11/16 09:21:13;;;;;;;9.68;7.00;;;;;;;5.78;46.89;102628.72;1767290;81;20986;-69
2021/11/16 09:23:44;;;;;;;9.25;6.92;;;;;;;5.84;46.48;102628.02;1763252;80;21584;-70
2021/11/16 09:26:25;;;;;;;10.45;7.58;;;;;;;5.79;46.51;102625.56;1763756;81;20964;-70
2021/11/16 09:28:53;;;;;;;9.10;7.00;;;;;;;5.76;46.51;102616.16;1766735;81;21133;-71
2021/11/16 09:31:24;;;;;;;10.20;7.60;;;;;;;5.78;46.71;102617.29;1766560;81;21506;-70
2021/11/16 09:33:52;;;;;;;11.88;9.23;;;;;;;5.80;46.74;102616.63;1767890;81;21014;-70
2021/11/16 09:36:26;;;;;;;10.95;7.33;;;;;;;5.79;46.84;102610.98;1767434;81;20951;-70
2021/11/16 09:38:57;;;;;;;11.90;6.90;;;;;;;5.79;46.57;102610.98;1766294;81;21030;-70
2021/11/16 09:41:40;;;;;;;10.05;6.97;;;;;;;5.79;46.81;102605.20;1766951;81;21129;-69
2021/11/16 09:44:15;;;;;;;9.55;7.40;;;;;;;5.92;47.02;102611.23;1767814;81;21058;-69
2021/11/16 09:46:54;;;;;;;9.83;7.42;;;;;;;6.05;46.70;102604.87;1763979;81;21018;-69
2021/11/16 09:49:35;;;;;;;9.03;7.03;;;;;;;6.10;46.50;102591.91;1767524;81;21561;-70
2021/11/16 09:52:06;;;;;;;10.28;7.10;;;;;;;6.15;46.54;102595.85;1767513;81;20986;-70
2021/11/16 09:54:53;;;;;;;10.35;7.20;;;;;;;6.19;46.14;102588.71;1767494;81;21089;-69
2021/11/16 09:57:32;;;;;;;11.10;7.30;;;;;;;6.22;46.16;102588.36;1767721;81;21019;-70
2021/11/16 10:00:17;;;;;;;11.38;7.67;;;;;;;6.28;45.90;102580.16;1767511;81;21043;-70
2021/11/16 10:02:48;;;;;;;10.23;7.90;;;;;;;6.19;45.78;102583.40;1767444;81;21505;-70
2021/11/16 10:05:20;;;;;;;6.87;5.42;;;;;;;6.06;45.90;102583.17;1767908;81;20998;-70
2021/11/16 10:07:49;;;;;;;9.70;7.55;;;;;;;6.05;46.24;102577.02;1766636;81;21954;-69
2021/11/16 10:10:17;;;;;;;10.78;8.08;;;;;;;6.13;46.47;102574.82;1767178;81;20924;-70
2021/11/16 10:12:52;;;;;;;9.73;7.00;;;;;;;6.20;46.50;102573.09;1767395;81;21086;-69
2021/11/16 10:15:22;;;;;;;9.58;7.45;;;;;;;6.20;46.23;102566.47;1767910;81;20940;-68
2021/11/16 10:17:51;;;;;;;;;;;;;;;6.16;46.16;102570.48;1770122;81;21098;-68
2021/11/16 10:20:23;;;;;;;11.75;8.20;;;;;;;6.14;46.24;102566.36;1767618;81;21116;-68
2021/11/16 10:22:53;;;;;;;11.50;8.35;;;;;;;6.08;46.54;102571.86;1767312;81;21043;-68
2021/11/16 10:25:23;;;;;;;11.43;8.53;;;;;;;5.96;46.30;102567.48;1767537;81;21082;-68
2021/11/16 10:27:53;;;;;;;11.35;8.93;;;;;;;5.88;46.35;102563.52;1756543;80;21000;-69
2021/11/16 10:30:29;;;;;;;11.53;8.45;;;;;;;5.74;46.52;102559.80;1735486;82;21024;-69
2021/11/16 10:33:17;;;;;;;10.93;8.70;;;;;;;5.75;46.84;102558.80;1735712;82;21810;-68
2021/11/16 10:35:58;;;;;;;12.23;9.38;;;;;;;5.77;46.88;102554.16;1735496;82;21022;-68
2021/11/16 10:38:32;;;;;;;11.35;8.05;;;;;;;5.84;46.89;102548.97;1735511;82;21051;-69
2021/11/16 10:41:05;;;;;;;11.10;8.20;;;;;;;5.95;46.92;102544.59;1735505;81;21086;-69
2021/11/16 10:43:54;;;;;;;11.50;8.88;;;;;;;6.10;46.82;102539.36;1737067;81;21058;-69
2021/11/16 10:46:23;;;;;;;12.85;9.00;;;;;;;6.21;46.25;102540.25;1737226;81;21756;-68
2021/11/16 10:48:55;;;;;;;10.60;8.55;;;;;;;6.28;46.15;102533.72;1751008;81;20987;-68
2021/11/16 10:51:33;;;;;;;12.30;8.73;;;;;;;6.32;45.49;102527.89;1766844;81;20998;-67
2021/11/16 10:54:01;;;;;;;11.60;8.80;;;;;;;6.23;45.73;102521.00;1767891;81;21003;-69
2021/11/16 10:56:33;;;;;;;10.90;8.15;;;;;;;6.29;46.09;102518.14;1767595;81;21034;-70
2021/11/16 10:59:13;;;;;;;12.10;8.78;;;;;;;6.40;46.16;102511.05;1767309;81;21133;-69
2021/11/16 11:01:51;;;;;;;9.60;8.20;;;;;;;6.54;46.00;102513.39;1767808;80;21031;-69
2021/11/16 11:04:20;;;;;;;12.00;8.98;;;;;;;6.66;45.38;102512.45;1767209;80;20971;-70
2021/11/16 11:06:49;;;;;;;11.03;8.43;;;;;;;6.69;45.15;102512.09;1767717;81;21457;-69
2021/11/16 11:09:18;;;;;;;13.30;8.58;;;;;;;6.62;44.59;102504.03;1767524;81;21427;-69
2021/11/16 11:11:48;;;;;;;10.18;7.92;;;;;;;6.57;44.93;102504.56;1767654;81;21758;-70
2021/11/16 11:14:25;;;;;;;12.03;9.45;;;;;;;6.49;44.89;102499.35;1767060;81;20970;-69
2021/11/16 11:16:55;;;;;;;11.10;8.80;;;;;;;6.47;44.75;102495.22;1736925;81;21082;-69
2021/11/16 11:19:26;;;;;;;10.75;8.55;;;;;;;6.39;44.81;102488.18;1766776;81;21038;-69
2021/11/16 11:22:26;;;;;;;11.10;8.38;;;;;;;6.43;45.06;102486.80;1767761;81;21043;-69
2021/11/16 11:25:17;;;;;;;10.08;8.18;;;;;;;6.53;45.27;102489.19;1766959;81;21152;-69
2021/11/16 11:30:09;;;;;;;9.98;8.00;;;;;;;6.69;44.72;102479.72;1767355;81;21530;-68
2021/11/16 11:32:39;;;;;;;10.32;7.42;;;;;;;6.75;44.67;102486.13;1765102;81;21495;-68
2021/11/16 11:35:13;;;;;;;12.35;7.75;;;;;;;6.80;44.50;102478.42;1766711;81;20948;-68
2021/11/16 11:37:58;;;;;;;11.10;7.53;;;;;;;6.84;44.36;102478.36;1767123;81;21141;-68
2021/11/16 11:40:32;;;;;;;9.13;7.05;;;;;;;6.90;44.21;102472.83;1767511;81;21046;-68
2021/11/16 11:43:03;;;;;;;9.90;7.83;;;;;;;6.94;44.11;102473.61;1765994;81;21035;-69
2021/11/16 11:45:36;;;;;;;11.55;8.00;;;;;;;6.85;43.81;102473.39;1767547;81;21051;-69
2021/11/16 11:48:18;;;;;;;9.78;7.40;;;;;;;6.76;44.19;102471.84;1765503;81;20984;-69
2021/11/16 11:50:55;;;;;;;9.93;7.22;;;;;;;6.78;44.13;102471.16;1760785;80;21157;-69
2021/11/16 11:53:29;;;;;;;8.45;6.90;;;;;;;6.79;44.02;102468.30;1767555;81;20979;-68
2021/11/16 11:56:01;;;;;;;8.60;6.30;;;;;;;6.82;43.84;102469.77;1767751;81;20959;-68
2021/11/16 11:58:30;;;;;;;8.88;6.65;;;;;;;6.83;43.57;102465.28;1764679;81;21081;-67
2021/11/16 12:01:01;;;;;;;7.75;6.05;;;;;;;6.75;43.00;102464.37;1767923;81;20984;-68
2021/11/16 12:03:28;;;;;;;9.43;6.22;;;;;;;6.66;43.26;102463.33;1767642;81;21145;-69
2021/11/16 12:05:54;;;;;;;9.48;7.15;;;;;;;6.64;43.41;102460.84;1767731;81;20979;-69
2021/11/16 12:08:21;;;;;;;10.60;7.17;;;;;;;6.60;43.23;102451.60;1766398;81;21050;-68
2021/11/16 12:10:49;;;;;;;8.80;6.40;;;;;;;6.58;43.62;102456.27;1767879;81;20943;-68